Time;durP1;ratioP1;P1;durP2;ratioP2;P2;SDS_P1;SDS_P2;PMS_P1;PMS_P2;Temp;Humidity;BMP_temperature;BMP_pressure;BME280_temperature;BME280_humidity;BME280_pressure;Samples;Min_cycle;Max_cycle;Signal;HPM_P1;HPM_P2
2023/12/21 00:00:59;;;;;;;27.52;6.68;;;10.50;99.90;;;;;;5052753;28;20041;-71
2023/12/21 00:03:24;;;;;;;17.92;4.70;;;10.40;99.90;;;;;;5053801;28;20492;-71
2023/12/21 00:05:51;;;;;;;16.33;4.32;;;10.40;99.90;;;;;;5052339;28;20040;-71
2023/12/21 00:08:16;;;;;;;17.20;4.90;;;10.40;99.90;;;;;;5053483;28;20068;-71
2023/12/21 00:10:42;;;;;;;16.95;3.83;;;10.50;99.90;;;;;;5052173;28;20484;-71
2023/12/21 00:13:08;;;;;;;20.17;3.95;;;10.30;99.90;;;;;;5052331;28;20032;-71
2023/12/21 00:15:33;;;;;;;17.90;3.95;;;10.50;99.90;;;;;;5053659;28;20564;-71
2023/12/21 00:17:59;;;;;;;20.27;4.55;;;10.50;99.90;;;;;;5051864;28;20048;-71
2023/12/21 00:20:24;;;;;;;29.73;4.80;;;10.40;99.90;;;;;;5053433;28;20392;-71
2023/12/21 00:22:50;;;;;;;23.95;3.97;;;10.40;99.90;;;;;;5053421;28;20508;-70
2023/12/21 00:25:16;;;;;;;17.23;4.10;;;10.40;99.90;;;;;;5053240;28;20300;-71
2023/12/21 00:27:41;;;;;;;15.95;3.70;;;10.50;99.90;;;;;;5051881;28;20199;-71
2023/12/21 00:30:08;;;;;;;14.85;3.65;;;10.60;99.90;;;;;;5053315;28;20044;-71
2023/12/21 00:32:33;;;;;;;14.73;5.93;;;10.50;99.90;;;;;;5053295;28;20041;-71
2023/12/21 00:34:59;;;;;;;23.05;4.57;;;10.50;99.90;;;;;;5053485;28;20120;-71
2023/12/21 00:37:25;;;;;;;17.17;4.32;;;10.50;99.90;;;;;;5052934;28;20408;-71
2023/12/21 00:39:50;;;;;;;22.45;5.32;;;10.40;99.90;;;;;;5051917;28;20033;-71
2023/12/21 00:42:16;;;;;;;19.52;5.40;;;10.50;99.90;;;;;;5052503;28;20112;-71
2023/12/21 00:44:42;;;;;;;18.08;3.42;;;10.50;99.90;;;;;;5053159;28;20063;-70
2023/12/21 00:47:08;;;;;;;20.95;6.22;;;10.60;99.90;;;;;;5052705;28;20077;-71
2023/12/21 00:49:34;;;;;;;17.33;3.67;;;10.40;99.90;;;;;;5052954;28;20095;-71
2023/12/21 00:51:59;;;;;;;18.63;4.30;;;10.50;99.90;;;;;;5052789;28;20511;-71
2023/12/21 00:54:25;;;;;;;16.88;4.60;;;10.50;99.90;;;;;;5052683;28;20400;-70
2023/12/21 00:56:51;;;;;;;22.95;4.88;;;10.50;99.90;;;;;;5052716;28;20041;-71
2023/12/21 00:59:17;;;;;;;17.63;5.15;;;10.40;99.90;;;;;;5052700;28;20052;-71
2023/12/21 01:01:43;;;;;;;25.48;5.70;;;10.50;99.90;;;;;;5052597;28;20045;-71
2023/12/21 01:04:08;;;;;;;18.35;4.03;;;10.40;99.90;;;;;;5052686;28;20515;-70
2023/12/21 01:06:36;;;;;;;19.88;4.40;;;10.60;99.90;;;;;;5052456;28;20080;-71
2023/12/21 01:09:04;;;;;;;12.98;3.60;;;10.50;99.90;;;;;;5052416;28;20479;-70
2023/12/21 01:11:30;;;;;;;17.23;4.93;;;10.50;99.90;;;;;;5052559;28;20033;-70
2023/12/21 01:13:56;;;;;;;20.05;4.40;;;10.40;99.90;;;;;;5051203;28;20032;-70
2023/12/21 01:16:21;;;;;;;19.65;6.15;;;10.40;99.90;;;;;;5052391;28;20032;-71
2023/12/21 01:18:47;;;;;;;15.13;3.97;;;10.50;99.90;;;;;;5052363;28;20048;-71
2023/12/21 01:21:12;;;;;;;19.40;4.70;;;10.50;99.90;;;;;;5052474;28;20041;-70
2023/12/21 01:23:38;;;;;;;21.33;6.25;;;10.30;99.90;;;;;;5051141;28;20041;-71
2023/12/21 01:26:04;;;;;;;20.10;5.40;;;10.30;99.90;;;;;;5052426;28;20568;-71
2023/12/21 01:28:29;;;;;;;19.52;5.00;;;10.30;99.90;;;;;;5052107;28;20041;-71
2023/12/21 01:30:55;;;;;;;16.50;4.75;;;10.30;99.90;;;;;;5050783;28;20412;-71
2023/12/21 01:33:20;;;;;;;19.63;4.70;;;10.50;99.90;;;;;;5051125;28;20041;-71
2023/12/21 01:35:46;;;;;;;12.35;4.05;;;10.40;99.90;;;;;;5051775;28;20060;-71
2023/12/21 01:38:12;;;;;;;18.20;5.45;;;10.40;99.90;;;;;;5050486;28;20041;-71
2023/12/21 01:40:37;;;;;;;15.95;4.10;;;10.30;99.90;;;;;;5051910;28;20040;-71
2023/12/21 01:43:03;;;;;;;20.30;4.70;;;10.40;99.90;;;;;;5051004;28;20033;-71
2023/12/21 01:45:29;;;;;;;18.85;4.90;;;10.30;99.90;;;;;;5050858;28;20082;-71
2023/12/21 01:47:55;;;;;;;21.58;4.93;;;10.30;99.90;;;;;;5051532;28;20089;-71
2023/12/21 01:50:21;;;;;;;16.25;4.53;;;10.40;99.90;;;;;;5051531;28;20072;-71
2023/12/21 01:52:47;;;;;;;16.48;4.40;;;10.30;99.90;;;;;;5050903;28;20079;-71
2023/12/21 01:55:14;;;;;;;15.07;4.80;;;10.30;99.90;;;;;;5051649;28;20044;-71
2023/12/21 01:57:40;;;;;;;14.80;3.58;;;10.50;99.90;;;;;;5051540;28;20033;-71
2023/12/21 02:00:07;;;;;;;15.93;4.45;;;10.50;99.90;;;;;;5051563;28;20056;-71
2023/12/21 02:02:32;;;;;;;18.17;5.43;;;10.40;99.90;;;;;;5051575;28;20041;-71
2023/12/21 02:04:58;;;;;;;13.65;5.13;;;10.40;99.90;;;;;;5051719;28;20041;-71
2023/12/21 02:07:24;;;;;;;11.57;4.30;;;10.40;99.90;;;;;;5051372;28;20079;-71
2023/12/21 02:09:49;;;;;;;18.15;3.88;;;10.40;99.90;;;;;;5051708;28;20047;-71
2023/12/21 02:12:15;;;;;;;12.20;4.25;;;10.50;99.90;;;;;;5051492;28;20064;-71
2023/12/21 02:14:40;;;;;;;17.45;6.13;;;10.40;99.90;;;;;;5051519;28;20033;-71
2023/12/21 02:17:12;;;;;;;13.98;4.10;;;10.40;99.90;;;;;;5051368;28;20037;-71
2023/12/21 02:19:38;;;;;;;18.13;4.25;;;10.20;99.90;;;;;;5051557;28;20043;-71
2023/12/21 02:22:04;;;;;;;13.38;4.65;;;10.40;99.90;;;;;;5051320;28;20122;-71
2023/12/21 02:24:30;;;;;;;15.23;5.25;;;10.20;99.90;;;;;;5051454;28;20636;-71
2023/12/21 02:26:56;;;;;;;13.15;4.75;;;10.40;99.90;;;;;;5051176;28;20090;-71
2023/12/21 02:29:22;;;;;;;17.30;5.55;;;10.50;99.90;;;;;;5051407;28;20079;-71
2023/12/21 02:31:47;;;;;;;20.80;4.55;;;10.30;99.90;;;;;;5051369;28;20083;-71
2023/12/21 02:34:13;;;;;;;12.68;4.15;;;10.30;99.90;;;;;;5050145;28;20049;-71
2023/12/21 02:36:38;;;;;;;15.13;4.85;;;10.30;99.90;;;;;;5050978;28;20045;-71
2023/12/21 02:39:04;;;;;;;17.77;5.40;;;10.30;99.90;;;;;;5051553;28;20044;-71
2023/12/21 02:41:30;;;;;;;20.67;4.75;;;10.30;99.90;;;;;;5092489;22;20564;-75
2023/12/21 02:43:55;;;;;;;18.10;5.35;;;10.50;99.90;;;;;;5073530;28;20507;-75
2023/12/21 02:46:25;;;;;;;17.30;5.20;;;10.30;99.90;;;;;;5073230;28;20071;-75
2023/12/21 02:48:51;;;;;;;16.50;4.45;;;10.50;99.90;;;;;;5072950;28;20036;-75
2023/12/21 02:51:17;;;;;;;15.73;4.50;;;10.40;99.90;;;;;;5072688;28;20123;-75
2023/12/21 02:53:43;;;;;;;19.35;5.18;;;10.40;99.90;;;;;;5073357;28;20127;-75
2023/12/21 02:56:08;;;;;;;12.57;4.85;;;10.30;99.90;;;;;;5073260;28;20136;-75
2023/12/21 02:58:34;;;;;;;24.23;5.72;;;10.40;99.90;;;;;;5073411;28;20036;-75
2023/12/21 03:01:01;;;;;;;19.92;5.03;;;10.50;99.90;;;;;;5073087;28;20043;-75
2023/12/21 03:03:27;;;;;;;22.45;7.13;;;10.40;99.90;;;;;;5073361;28;20431;-75
2023/12/21 03:05:52;;;;;;;15.80;5.47;;;10.40;99.90;;;;;;5059408;28;20097;-75
2023/12/21 03:08:18;;;;;;;18.02;5.35;;;10.30;99.90;;;;;;5076564;28;20048;-75
2023/12/21 03:10:43;;;;;;;19.20;5.55;;;10.40;99.90;;;;;;5077067;28;20471;-75
2023/12/21 03:13:09;;;;;;;16.67;4.78;;;10.50;99.90;;;;;;5076799;28;20028;-75
2023/12/21 03:15:35;;;;;;;12.00;5.95;;;10.30;99.90;;;;;;5076748;28;20036;-75
2023/12/21 03:18:00;;;;;;;17.17;5.30;;;10.40;99.90;;;;;;5076158;28;20115;-75
2023/12/21 03:20:26;;;;;;;22.08;6.75;;;10.40;99.90;;;;;;5059931;28;20132;-75
2023/12/21 03:22:52;;;;;;;15.55;5.20;;;10.40;99.90;;;;;;5076329;28;20539;-75
2023/12/21 03:25:17;;;;;;;15.05;5.25;;;10.40;99.90;;;;;;5076275;28;20431;-75
2023/12/21 03:27:43;;;;;;;15.82;4.63;;;10.50;99.90;;;;;;5075888;28;20040;-75
2023/12/21 03:30:10;;;;;;;17.52;4.32;;;10.40;99.90;;;;;;5059587;28;20067;-75
2023/12/21 03:32:36;;;;;;;12.95;4.32;;;10.50;99.90;;;;;;5059964;28;20044;-75
2023/12/21 03:35:03;;;;;;;11.93;4.32;;;10.50;99.90;;;;;;5059927;28;20051;-75
2023/12/21 03:37:29;;;;;;;16.40;4.22;;;10.40;99.90;;;;;;5059539;28;20036;-75
2023/12/21 03:39:58;;;;;;;13.75;4.38;;;10.40;99.90;;;;;;5076693;28;20040;-75
2023/12/21 03:42:24;;;;;;;14.88;4.95;;;10.40;99.90;;;;;;5059837;28;20036;-75
2023/12/21 03:44:49;;;;;;;15.90;4.78;;;10.30;99.90;;;;;;5076106;28;20572;-75
2023/12/21 03:47:15;;;;;;;13.43;4.10;;;10.50;99.90;;;;;;5075783;28;20072;-75
2023/12/21 03:49:41;;;;;;;13.10;4.13;;;10.50;99.90;;;;;;5076139;28;20047;-75
2023/12/21 03:52:07;;;;;;;17.73;3.97;;;10.30;99.90;;;;;;5076292;28;20062;-75
2023/12/21 03:54:32;;;;;;;13.38;4.55;;;10.30;99.90;;;;;;5076078;28;20131;-75
2023/12/21 03:56:59;;;;;;;12.48;4.63;;;10.30;99.90;;;;;;5059051;28;20376;-75
2023/12/21 03:59:25;;;;;;;14.05;4.55;;;10.40;99.90;;;;;;5059112;28;20102;-75
2023/12/21 04:01:52;;;;;;;16.23;5.00;;;10.40;99.90;;;;;;5075104;28;20044;-75
2023/12/21 04:04:18;;;;;;;20.60;4.47;;;10.50;99.90;;;;;;5075549;28;20047;-75
2023/12/21 04:06:43;;;;;;;15.00;5.63;;;10.40;99.90;;;;;;5075487;28;20032;-75
2023/12/21 04:09:09;;;;;;;10.75;4.47;;;10.40;99.90;;;;;;5075806;28;20086;-75
2023/12/21 04:11:34;;;;;;;19.63;4.97;;;10.60;99.90;;;;;;5075635;28;20499;-75
2023/12/21 04:14:00;;;;;;;14.23;5.22;;;10.50;99.90;;;;;;5058964;28;20043;-75
2023/12/21 04:16:26;;;;;;;15.00;6.05;;;10.40;99.90;;;;;;5074732;28;20038;-75
2023/12/21 04:18:52;;;;;;;11.88;4.45;;;10.40;99.90;;;;;;5075361;28;20461;-75
2023/12/21 04:21:17;;;;;;;14.25;4.55;;;10.40;99.90;;;;;;5075389;28;20047;-75
2023/12/21 04:23:44;;;;;;;10.85;4.13;;;10.40;99.90;;;;;;5076029;28;20403;-75
2023/12/21 04:26:18;;;;;;;17.17;4.63;;;10.50;99.90;;;;;;5075562;28;20052;-75
2023/12/21 04:28:44;;;;;;;15.75;4.70;;;10.50;99.90;;;;;;5093368;28;20040;-75
2023/12/21 04:31:09;;;;;;;13.60;4.88;;;10.30;99.90;;;;;;5075165;28;20040;-75
2023/12/21 04:33:37;;;;;;;11.50;4.82;;;10.40;99.90;;;;;;5058996;28;20043;-75
2023/12/21 04:36:03;;;;;;;15.10;3.92;;;10.30;99.90;;;;;;5058414;28;20036;-75
2023/12/21 04:38:29;;;;;;;11.15;3.58;;;10.40;99.90;;;;;;5075033;28;20051;-75
2023/12/21 04:40:54;;;;;;;12.68;4.10;;;10.50;99.90;;;;;;5092831;28;20563;-75
2023/12/21 04:43:20;;;;;;;17.50;4.53;;;10.50;99.90;;;;;;5074120;28;20040;-75
2023/12/21 04:45:45;;;;;;;15.75;3.63;;;10.40;99.90;;;;;;5074985;28;20388;-75
2023/12/21 04:48:11;;;;;;;10.48;3.58;;;10.40;99.90;;;;;;5075206;28;20075;-75
2023/12/21 04:50:37;;;;;;;13.68;4.13;;;10.30;99.90;;;;;;5074967;28;20522;-75
2023/12/21 04:53:02;;;;;;;9.07;3.00;;;10.50;99.90;;;;;;5074851;28;20036;-75
2023/12/21 04:55:28;;;;;;;11.38;3.53;;;10.30;99.90;;;;;;5074990;28;20115;-75
2023/12/21 04:57:53;;;;;;;12.55;3.35;;;10.50;99.90;;;;;;5092733;28;20028;-75
2023/12/21 05:00:19;;;;;;;14.57;3.85;;;10.40;99.90;;;;;;5058257;28;20044;-75
2023/12/21 05:02:45;;;;;;;11.50;3.47;;;10.60;99.90;;;;;;5092712;28;20122;-75
2023/12/21 05:05:10;;;;;;;10.52;3.08;;;10.40;99.90;;;;;;5074735;28;20097;-75
2023/12/21 05:07:37;;;;;;;18.00;3.90;;;10.40;99.90;;;;;;5074400;28;20044;-75
2023/12/21 05:10:03;;;;;;;15.23;3.58;;;10.40;99.90;;;;;;5074587;28;20051;-75
2023/12/21 05:12:28;;;;;;;15.25;4.22;;;10.50;99.90;;;;;;5058061;28;20043;-75
2023/12/21 05:14:54;;;;;;;9.57;3.53;;;10.50;99.90;;;;;;5074492;28;20044;-75
2023/12/21 05:17:20;;;;;;;12.13;4.05;;;10.40;99.90;;;;;;5074512;28;20051;-75
2023/12/21 05:19:46;;;;;;;8.27;3.47;;;10.50;99.90;;;;;;5074417;28;20036;-75
2023/12/21 05:22:12;;;;;;;15.05;4.30;;;10.50;99.90;;;;;;5074427;28;20039;-75
2023/12/21 05:24:38;;;;;;;13.50;4.53;;;10.40;99.90;;;;;;5074116;28;20040;-75
2023/12/21 05:27:05;;;;;;;14.38;4.28;;;10.50;99.90;;;;;;5074067;28;20048;-75
2023/12/21 05:29:30;;;;;;;12.93;3.78;;;10.50;99.90;;;;;;5074263;28;20418;-75
2023/12/21 05:31:56;;;;;;;12.40;4.10;;;10.50;99.90;;;;;;5074170;28;20032;-75
2023/12/21 05:34:22;;;;;;;13.38;4.45;;;10.70;99.90;;;;;;5092385;28;20028;-75
2023/12/21 05:36:47;;;;;;;15.27;4.82;;;10.50;99.90;;;;;;5074039;28;20190;-75
2023/12/21 05:39:14;;;;;;;13.57;5.85;;;10.40;99.90;;;;;;5074113;28;20035;-75
2023/12/21 05:41:40;;;;;;;19.05;4.60;;;10.60;99.90;;;;;;5073765;28;20051;-75
2023/12/21 05:44:05;;;;;;;11.43;3.42;;;10.60;99.90;;;;;;5073999;28;20054;-75
2023/12/21 05:46:31;;;;;;;11.65;4.03;;;10.60;99.90;;;;;;5073960;28;20126;-75
2023/12/21 05:48:57;;;;;;;11.00;3.60;;;10.50;99.90;;;;;;5073840;28;20082;-74
2023/12/21 05:51:22;;;;;;;17.75;5.60;;;10.50;99.90;;;;;;5073790;28;20043;-74
2023/12/21 05:53:48;;;;;;;16.80;3.80;;;10.50;99.90;;;;;;5067566;28;20035;-74
2023/12/21 05:56:13;;;;;;;19.23;4.13;;;10.40;99.90;;;;;;5068050;28;20032;-74
2023/12/21 05:58:39;;;;;;;10.60;3.80;;;10.60;99.90;;;;;;5069763;28;20127;-74
2023/12/21 06:01:05;;;;;;;13.25;3.63;;;10.70;99.90;;;;;;5073761;28;20411;-75
2023/12/21 06:03:30;;;;;;;13.40;3.30;;;10.50;99.90;;;;;;5092037;28;20054;-74
2023/12/21 06:05:56;;;;;;;16.63;4.22;;;10.40;99.90;;;;;;5073678;28;20040;-74
2023/12/21 06:08:21;;;;;;;9.57;3.05;;;10.40;99.90;;;;;;5073616;28;20032;-74
2023/12/21 06:10:47;;;;;;;16.58;4.07;;;10.50;99.90;;;;;;5073733;28;20089;-75
2023/12/21 06:13:13;;;;;;;19.00;4.60;;;10.70;99.90;;;;;;5073664;28;20402;-74
2023/12/21 06:15:38;;;;;;;10.15;3.33;;;10.50;99.90;;;;;;5073660;28;20149;-75
2023/12/21 06:18:04;;;;;;;9.90;2.88;;;10.70;99.90;;;;;;5073461;28;20404;-75
2023/12/21 06:20:30;;;;;;;13.93;3.28;;;10.60;99.90;;;;;;5073656;28;20043;-75
2023/12/21 06:22:56;;;;;;;12.90;3.45;;;10.70;99.90;;;;;;5073714;28;20044;-75
2023/12/21 06:25:21;;;;;;;10.00;3.30;;;10.50;99.90;;;;;;5073571;28;20040;-75
2023/12/21 06:27:47;;;;;;;15.95;3.95;;;10.70;99.90;;;;;;5073584;28;20384;-74
2023/12/21 06:30:13;;;;;;;12.98;4.20;;;10.70;99.90;;;;;;5056891;28;20036;-75
2023/12/21 06:32:40;;;;;;;20.60;3.95;;;10.70;99.90;;;;;;5073436;28;20032;-74
2023/12/21 06:35:05;;;;;;;17.95;4.47;;;10.50;99.90;;;;;;5073797;28;20430;-75
2023/12/21 06:37:31;;;;;;;11.90;3.97;;;10.70;99.90;;;;;;5073227;28;20028;-75
2023/12/21 06:39:57;;;;;;;18.88;4.43;;;10.60;99.90;;;;;;5058444;28;20044;-75
2023/12/21 06:42:23;;;;;;;12.25;3.85;;;10.70;99.90;;;;;;5060402;28;20072;-75
2023/12/21 06:44:48;;;;;;;19.70;4.65;;;10.60;99.90;;;;;;5077626;28;20109;-75
2023/12/21 06:47:14;;;;;;;18.10;3.47;;;10.70;99.90;;;;;;5095143;28;20085;-75
2023/12/21 06:49:39;;;;;;;11.68;3.75;;;10.70;99.90;;;;;;5077513;28;20062;-75
2023/12/21 06:52:05;;;;;;;11.45;3.25;;;10.70;99.90;;;;;;5095352;28;20032;-75
2023/12/21 06:54:31;;;;;;;10.07;3.17;;;10.60;99.90;;;;;;5077323;28;20581;-74
2023/12/21 06:56:57;;;;;;;14.85;3.00;;;10.70;99.90;;;;;;5077103;28;20119;-75
2023/12/21 06:59:22;;;;;;;11.38;2.58;;;10.70;99.90;;;;;;5077420;28;20036;-75
2023/12/21 07:01:48;;;;;;;13.80;2.70;;;10.70;99.90;;;;;;5077165;28;20073;-76
2023/12/21 07:04:13;;;;;;;8.48;2.80;;;10.70;99.90;;;;;;5077347;28;20039;-76
2023/12/21 07:06:39;;;;;;;8.75;2.20;;;10.60;99.90;;;;;;5076501;28;20040;-75
2023/12/21 07:09:06;;;;;;;7.05;2.80;;;10.70;99.90;;;;;;5076642;28;20127;-76
2023/12/21 07:11:32;;;;;;;9.07;2.67;;;10.60;99.90;;;;;;5076590;28;20111;-75
2023/12/21 07:13:57;;;;;;;5.70;1.85;;;10.60;99.90;;;;;;5076883;28;20039;-75
2023/12/21 07:16:23;;;;;;;6.45;1.60;;;10.70;99.90;;;;;;5076863;28;20043;-75
2023/12/21 07:18:50;;;;;;;6.13;1.48;;;10.70;99.90;;;;;;5059909;28;20521;-75
2023/12/21 07:21:16;;;;;;;5.03;1.55;;;10.70;99.90;;;;;;5076601;28;20089;-76
2023/12/21 07:23:41;;;;;;;8.10;1.73;;;10.80;99.90;;;;;;5076613;28;20410;-76
2023/12/21 07:26:09;;;;;;;6.68;1.98;;;10.60;99.90;;;;;;5059593;28;20040;-75
2023/12/21 07:28:35;;;;;;;4.30;2.35;;;10.70;99.90;;;;;;5059774;28;20081;-75
2023/12/21 07:31:00;;;;;;;6.22;1.42;;;10.70;99.90;;;;;;5076511;28;20120;-76
2023/12/21 07:33:26;;;;;;;6.32;1.27;;;10.70;99.90;;;;;;5094327;28;20051;-76
2023/12/21 07:35:52;;;;;;;6.68;1.42;;;10.60;99.90;;;;;;5059595;28;20438;-75
2023/12/21 07:38:17;;;;;;;4.97;1.80;;;10.70;99.90;;;;;;5059525;28;20036;-76
2023/12/21 07:40:44;;;;;;;7.82;2.33;;;10.60;99.90;;;;;;5059508;28;20060;-76
2023/12/21 07:43:09;;;;;;;3.45;1.30;;;10.60;99.90;;;;;;5076680;28;20043;-76
2023/12/21 07:45:35;;;;;;;4.88;1.30;;;10.70;99.90;;;;;;5059524;28;20123;-76
2023/12/21 07:48:01;;;;;;;5.53;1.40;;;10.70;99.90;;;;;;5076353;28;20036;-76
2023/12/21 07:50:29;;;;;;;4.25;1.38;;;10.70;99.90;;;;;;5075730;28;20040;-77
2023/12/21 07:52:56;;;;;;;6.75;1.48;;;10.70;99.90;;;;;;5062292;28;20036;-76
2023/12/21 07:55:22;;;;;;;6.35;1.35;;;10.70;99.90;;;;;;5075946;28;20040;-76
2023/12/21 07:57:48;;;;;;;3.92;1.63;;;10.90;99.90;;;;;;5076014;28;20084;-76
2023/12/21 08:00:14;;;;;;;3.78;1.70;;;10.70;99.90;;;;;;5076114;28;20388;-75
2023/12/21 08:02:44;;;;;;;4.18;2.00;;;10.90;99.90;;;;;;5075830;28;20047;-76
2023/12/21 08:05:11;;;;;;;6.63;2.08;;;10.70;99.90;;;;;;5059016;28;20043;-76
2023/12/21 08:07:38;;;;;;;6.22;1.60;;;10.70;99.90;;;;;;5075482;28;20499;-76
2023/12/21 08:10:04;;;;;;;6.55;1.40;;;10.90;99.90;;;;;;5093900;28;20048;-76
2023/12/21 08:12:30;;;;;;;2.78;1.40;;;10.80;99.90;;;;;;5074897;28;20083;-76
2023/12/21 08:14:55;;;;;;;5.20;1.40;;;10.90;99.90;;;;;;5075515;28;20113;-76
2023/12/21 08:17:21;;;;;;;4.82;1.30;;;10.80;99.90;;;;;;5075088;28;20517;-77
2023/12/21 08:19:46;;;;;;;4.72;1.42;;;10.80;99.90;;;;;;5074972;28;20097;-76
2023/12/21 08:22:12;;;;;;;4.97;1.40;;;10.90;99.90;;;;;;5058726;28;20039;-75
2023/12/21 08:24:37;;;;;;;5.10;1.20;;;10.70;99.90;;;;;;5075491;28;20136;-76
2023/12/21 08:27:05;;;;;;;4.45;1.33;;;11.00;99.90;;;;;;5075361;28;20123;-77
2023/12/21 08:29:31;;;;;;;5.25;1.42;;;10.90;99.90;;;;;;5075873;28;20040;-77
2023/12/21 08:31:56;;;;;;;4.88;1.60;;;10.70;99.90;;;;;;5075117;28;20127;-76
2023/12/21 08:34:22;;;;;;;12.02;1.95;;;10.80;99.90;;;;;;5075507;28;20059;-76
2023/12/21 08:36:49;;;;;;;8.07;1.60;;;10.90;99.90;;;;;;5092873;28;20032;-76
2023/12/21 08:39:15;;;;;;;9.52;2.60;;;10.80;99.90;;;;;;5068982;28;20076;-76
2023/12/21 08:41:40;;;;;;;6.38;2.58;;;10.80;99.90;;;;;;5098944;22;20060;-80
2023/12/21 08:44:06;;;;;;;10.80;2.58;;;11.00;99.90;;;;;;5095745;28;20104;-81
2023/12/21 08:46:32;;;;;;;16.13;3.08;;;10.90;99.90;;;;;;5096608;28;20036;-81
2023/12/21 08:48:58;;;;;;;14.57;3.03;;;11.20;99.90;;;;;;5097513;28;20102;-80
2023/12/21 08:51:23;;;;;;;10.98;2.88;;;11.00;99.90;;;;;;5094599;28;20100;-80
2023/12/21 08:53:49;;;;;;;14.60;3.03;;;10.90;99.90;;;;;;5096260;28;20039;-78
2023/12/21 08:56:15;;;;;;;18.50;4.30;;;11.00;99.90;;;;;;5096213;28;20047;-80
2023/12/21 08:58:41;;;;;;;19.67;4.40;;;11.10;99.90;;;;;;5095566;28;20047;-80
2023/12/21 09:01:07;;;;;;;12.90;3.25;;;11.00;99.90;;;;;;5095460;28;20036;-80
2023/12/21 09:03:32;;;;;;;13.50;4.18;;;11.10;99.90;;;;;;5095066;28;20032;-79
2023/12/21 09:05:58;;;;;;;16.25;4.70;;;11.00;99.90;;;;;;5079853;28;20093;-79
2023/12/21 09:08:23;;;;;;;21.70;2.95;;;11.10;99.90;;;;;;5095917;28;20525;-82
2023/12/21 09:10:49;;;;;;;15.00;2.90;;;11.20;99.90;;;;;;5094833;28;20032;-79
2023/12/21 09:13:15;;;;;;;17.15;3.88;;;11.10;99.90;;;;;;5095956;28;20460;-81
2023/12/21 09:15:40;;;;;;;20.70;3.33;;;11.10;99.90;;;;;;5094524;28;20036;-81
2023/12/21 09:18:06;;;;;;;12.80;2.97;;;11.20;99.90;;;;;;5093258;28;20166;-80
2023/12/21 09:20:32;;;;;;;13.88;2.97;;;11.30;99.90;;;;;;5077487;28;20042;-80
2023/12/21 09:22:57;;;;;;;14.02;2.63;;;11.40;99.90;;;;;;5095863;28;20047;-81
2023/12/21 09:25:23;;;;;;;15.40;2.08;;;11.10;99.90;;;;;;5094581;28;20036;-80
2023/12/21 09:27:49;;;;;;;13.02;2.97;;;11.30;99.90;;;;;;5094909;28;20461;-80
2023/12/21 09:30:16;;;;;;;13.73;3.20;;;11.40;99.90;;;;;;5094548;28;20040;-80
2023/12/21 09:32:45;;;;;;;13.43;3.75;;;11.20;99.90;;;;;;5094165;28;20036;-80
2023/12/21 09:35:10;;;;;;;18.80;3.08;;;11.50;99.90;;;;;;5094016;28;20039;-81
2023/12/21 09:37:36;;;;;;;11.52;2.50;;;11.50;99.90;;;;;;5096415;28;20032;-81
2023/12/21 09:40:03;;;;;;;22.25;4.53;;;11.20;99.90;;;;;;5100656;28;20411;-79
2023/12/21 09:42:30;;;;;;;13.15;3.58;;;11.30;99.90;;;;;;5077589;28;20499;-79
2023/12/21 09:44:56;;;;;;;12.27;4.75;;;11.30;99.90;;;;;;5076490;28;20036;-79
2023/12/21 09:47:23;;;;;;;13.68;2.70;;;11.40;99.90;;;;;;5078405;28;20039;-77
2023/12/21 09:49:50;;;;;;;14.02;2.92;;;11.50;99.90;;;;;;5103774;28;20051;-82
2023/12/21 09:52:20;;;;;;;12.07;3.53;;;11.50;99.90;;;;;;5109460;28;20036;-82
2023/12/21 09:54:49;;;;;;;12.50;3.20;;;11.60;99.90;;;;;;5102742;28;20036;-81
2023/12/21 09:57:15;;;;;;;17.27;3.00;;;11.60;99.90;;;;;;5100688;28;20051;-80
2023/12/21 09:59:41;;;;;;;13.52;3.78;;;11.50;99.90;;;;;;5101998;28;20036;-81
2023/12/21 10:02:11;;;;;;;16.65;3.00;;;11.70;99.90;;;;;;5101784;28;20423;-81
2023/12/21 10:04:40;;;;;;;15.82;2.85;;;11.50;99.90;;;;;;5100656;28;20040;-80
2023/12/21 10:07:08;;;;;;;18.80;2.58;;;11.60;99.90;;;;;;5099470;28;20044;-81
2023/12/21 10:09:34;;;;;;;12.15;3.53;;;11.60;99.90;;;;;;5100203;28;20151;-80
2023/12/21 10:12:00;;;;;;;15.15;3.00;;;11.80;99.90;;;;;;5102048;28;20036;-82
2023/12/21 10:14:27;;;;;;;14.55;3.38;;;11.70;99.90;;;;;;5100482;28;20423;-82
2023/12/21 10:16:53;;;;;;;12.45;2.75;;;11.80;99.90;;;;;;5100263;28;20564;-81
2023/12/21 10:19:18;;;;;;;17.58;3.00;;;11.60;99.90;;;;;;5100248;28;20043;-81
2023/12/21 10:21:46;;;;;;;16.08;3.92;;;11.80;99.90;;;;;;5098774;28;20055;-82
2023/12/21 10:24:12;;;;;;;15.00;3.42;;;11.70;99.90;;;;;;5079375;28;20054;-83
2023/12/21 10:26:46;;;;;;;15.68;2.53;;;11.70;99.90;;;;;;5079870;28;20066;-80
2023/12/21 10:29:15;;;;;;;25.77;4.40;;;11.80;99.90;;;;;;5080790;28;20037;-81
2023/12/21 10:31:48;;;;;;;14.07;2.88;;;11.90;99.90;;;;;;5078368;28;20047;-84
2023/12/21 10:34:17;;;;;;;15.82;3.70;;;11.90;99.90;;;;;;5081278;28;20037;-79
2023/12/21 10:36:44;;;;;;;16.10;3.60;;;12.00;99.90;;;;;;5080143;28;20032;-81
2023/12/21 10:39:17;;;;;;;17.95;4.13;;;12.10;99.90;;;;;;5078691;28;20411;-81
2023/12/21 10:41:44;;;;;;;13.82;3.50;;;12.00;99.90;;;;;;5076645;28;20044;-81
2023/12/21 10:44:12;;;;;;;16.42;2.95;;;12.00;99.90;;;;;;5076953;28;20046;-81
2023/12/21 10:46:39;;;;;;;15.85;2.95;;;11.90;99.90;;;;;;5076472;28;20051;-84
2023/12/21 10:49:06;;;;;;;12.25;3.88;;;12.10;99.90;;;;;;5076336;28;20044;-80
2023/12/21 10:51:35;;;;;;;11.40;2.83;;;11.80;99.90;;;;;;5075392;28;20116;-81
2023/12/21 10:54:02;;;;;;;18.73;2.50;;;11.90;99.90;;;;;;5075615;28;20044;-81
2023/12/21 10:56:28;;;;;;;24.60;4.53;;;12.10;99.90;;;;;;5073929;28;20048;-81
2023/12/21 10:58:55;;;;;;;11.20;2.90;;;12.00;99.90;;;;;;5078076;28;20032;-80
2023/12/21 11:01:24;;;;;;;13.27;3.38;;;12.10;99.90;;;;;;5095795;28;20465;-82
2023/12/21 11:03:51;;;;;;;10.98;2.25;;;12.00;99.90;;;;;;5096636;28;20054;-82
2023/12/21 11:06:17;;;;;;;16.35;2.63;;;12.00;99.90;;;;;;5096020;28;20044;-82
2023/12/21 11:08:44;;;;;;;16.30;2.65;;;12.10;99.90;;;;;;5096484;28;20083;-80
2023/12/21 11:11:12;;;;;;;16.63;3.08;;;12.00;99.90;;;;;;5103610;28;20035;-80
2023/12/21 11:13:42;;;;;;;14.23;4.40;;;11.90;99.90;;;;;;5105082;28;20134;-80
2023/12/21 11:16:14;;;;;;;12.38;3.28;;;11.90;99.90;;;;;;5095941;28;20044;-81
2023/12/21 11:18:43;;;;;;;13.07;2.63;;;11.80;99.90;;;;;;5079353;28;20043;-81
2023/12/21 11:21:10;;;;;;;12.82;2.95;;;11.90;99.90;;;;;;5098809;28;20063;-81
2023/12/21 11:23:45;;;;;;;23.67;4.53;;;11.90;99.90;;;;;;5097553;28;20054;-81
2023/12/21 11:26:11;;;;;;;17.00;2.88;;;11.80;99.90;;;;;;5100643;28;20032;-80
2023/12/21 11:28:37;;;;;;;13.18;2.97;;;11.90;99.90;;;;;;5100934;28;20062;-82
2023/12/21 11:31:15;;;;;;;10.15;2.92;;;11.90;99.90;;;;;;5092344;28;20048;-80
2023/12/21 11:33:41;;;;;;;12.40;2.38;;;12.10;99.90;;;;;;5090383;28;20028;-80
2023/12/21 11:36:08;;;;;;;13.75;2.50;;;12.10;99.90;;;;;;5099988;28;20061;-81
2023/12/21 11:38:53;;;;;;;16.30;4.95;;;12.10;99.90;;;;;;5090505;28;20036;-78
2023/12/21 11:41:23;;;;;;;18.58;4.15;;;12.10;99.90;;;;;;5082857;28;20045;-78
2023/12/21 11:44:02;;;;;;;16.63;4.22;;;12.10;99.90;;;;;;5084336;28;20118;-77
2023/12/21 11:46:31;;;;;;;18.25;4.10;;;12.10;99.90;;;;;;5099179;28;20051;-78
2023/12/21 11:48:56;;;;;;;20.88;3.83;;;12.10;99.90;;;;;;5100477;28;20048;-79
2023/12/21 11:51:22;;;;;;;18.80;4.30;;;12.20;99.90;;;;;;5100771;28;20116;-77
2023/12/21 11:53:48;;;;;;;20.08;4.80;;;12.00;99.90;;;;;;5100558;28;20067;-81
2023/12/21 11:56:14;;;;;;;20.13;3.72;;;12.20;99.90;;;;;;5098183;28;20534;-79
2023/12/21 11:58:40;;;;;;;13.82;3.50;;;12.20;99.90;;;;;;5100770;28;20041;-80
2023/12/21 12:01:07;;;;;;;16.83;3.95;;;12.20;99.90;;;;;;5098335;28;20502;-79
2023/12/21 12:03:33;;;;;;;23.55;4.72;;;12.20;99.90;;;;;;5099123;28;20071;-80
2023/12/21 12:06:04;;;;;;;23.13;4.00;;;12.20;99.90;;;;;;5100914;28;20091;-80
2023/12/21 12:08:33;;;;;;;17.85;3.97;;;12.10;99.90;;;;;;5098922;28;20055;-80
2023/12/21 12:10:59;;;;;;;23.88;4.70;;;12.30;99.90;;;;;;5103023;28;20035;-80
2023/12/21 12:13:25;;;;;;;17.92;3.95;;;12.20;99.90;;;;;;5099641;28;20036;-81
2023/12/21 12:15:52;;;;;;;18.05;3.00;;;12.30;99.90;;;;;;5098646;28;20047;-80
2023/12/21 12:18:21;;;;;;;20.40;3.78;;;12.30;99.90;;;;;;5103551;28;20036;-79
2023/12/21 12:20:48;;;;;;;16.52;4.63;;;12.30;99.90;;;;;;5099613;28;20450;-80
2023/12/21 12:23:14;;;;;;;14.73;3.75;;;12.30;99.90;;;;;;5093434;28;20028;-80
2023/12/21 12:25:42;;;;;;;17.83;5.32;;;12.20;99.90;;;;;;5097438;28;20032;-80
2023/12/21 12:28:08;;;;;;;16.92;4.60;;;12.20;99.90;;;;;;5094432;28;20036;-80
2023/12/21 12:30:37;;;;;;;22.77;4.40;;;12.30;99.90;;;;;;5103038;28;20115;-80
2023/12/21 12:33:04;;;;;;;18.45;3.83;;;12.30;99.90;;;;;;5111802;28;20061;-79